sensor_id;sensor_type;location;lat;lon;timestamp;P1;durP1;ratioP1;P2;durP2;ratioP2
38162;SDS011;23977;53.078;18.248;2023-07-16T01:15:18;8.07;;;6.15;;
38162;SDS011;23977;53.078;18.248;2023-07-16T01:18:14;7.35;;;6.25;;
38162;SDS011;23977;53.078;18.248;2023-07-16T02:08:59;9.63;;;8.00;;
38162;SDS011;23977;53.078;18.248;2023-07-16T02:11:46;9.32;;;7.50;;
38162;SDS011;23977;53.078;18.248;2023-07-16T02:14:51;10.85;;;8.00;;
38162;SDS011;23977;53.078;18.248;2023-07-16T02:17:36;9.50;;;7.85;;
38162;SDS011;23977;53.078;18.248;2023-07-16T05:43:01;7.38;;;3.60;;
38162;SDS011;23977;53.078;18.248;2023-07-16T05:45:27;8.00;;;3.70;;
38162;SDS011;23977;53.078;18.248;2023-07-16T05:47:54;6.95;;;3.75;;
38162;SDS011;23977;53.078;18.248;2023-07-16T05:50:20;6.40;;;3.60;;
38162;SDS011;23977;53.078;18.248;2023-07-16T05:52:46;6.57;;;3.47;;
38162;SDS011;23977;53.078;18.248;2023-07-16T05:55:13;5.53;;;3.33;;
38162;SDS011;23977;53.078;18.248;2023-07-16T05:57:39;5.38;;;3.28;;
38162;SDS011;23977;53.078;18.248;2023-07-16T06:00:05;7.57;;;3.53;;
38162;SDS011;23977;53.078;18.248;2023-07-16T06:02:31;5.43;;;3.40;;
38162;SDS011;23977;53.078;18.248;2023-07-16T06:04:57;5.63;;;3.15;;
38162;SDS011;23977;53.078;18.248;2023-07-16T06:07:22;4.63;;;3.38;;
38162;SDS011;23977;53.078;18.248;2023-07-16T06:09:48;4.75;;;3.00;;
38162;SDS011;23977;53.078;18.248;2023-07-16T06:12:14;5.53;;;3.15;;
38162;SDS011;23977;53.078;18.248;2023-07-16T06:14:39;6.93;;;3.40;;
38162;SDS011;23977;53.078;18.248;2023-07-16T06:17:05;5.47;;;3.30;;
38162;SDS011;23977;53.078;18.248;2023-07-16T06:19:31;4.68;;;2.88;;
38162;SDS011;23977;53.078;18.248;2023-07-16T06:21:56;4.85;;;2.97;;
38162;SDS011;23977;53.078;18.248;2023-07-16T06:24:22;5.70;;;3.15;;
38162;SDS011;23977;53.078;18.248;2023-07-16T06:26:48;4.72;;;2.90;;
38162;SDS011;23977;53.078;18.248;2023-07-16T06:29:14;6.40;;;3.45;;
38162;SDS011;23977;53.078;18.248;2023-07-16T06:31:41;4.50;;;2.90;;
38162;SDS011;23977;53.078;18.248;2023-07-16T06:34:08;4.68;;;3.00;;
38162;SDS011;23977;53.078;18.248;2023-07-16T06:36:34;4.20;;;3.00;;
38162;SDS011;23977;53.078;18.248;2023-07-16T06:39:00;5.07;;;2.80;;
38162;SDS011;23977;53.078;18.248;2023-07-16T06:41:25;4.82;;;2.70;;
38162;SDS011;23977;53.078;18.248;2023-07-16T06:43:51;3.83;;;2.70;;
38162;SDS011;23977;53.078;18.248;2023-07-16T06:46:17;4.85;;;3.10;;
38162;SDS011;23977;53.078;18.248;2023-07-16T06:48:43;4.97;;;2.80;;
38162;SDS011;23977;53.078;18.248;2023-07-16T06:51:08;7.03;;;3.05;;
38162;SDS011;23977;53.078;18.248;2023-07-16T06:53:34;5.60;;;2.90;;
38162;SDS011;23977;53.078;18.248;2023-07-16T06:55:59;4.18;;;2.67;;
38162;SDS011;23977;53.078;18.248;2023-07-16T06:58:32;3.83;;;2.50;;
38162;SDS011;23977;53.078;18.248;2023-07-16T07:00:59;4.65;;;2.60;;
38162;SDS011;23977;53.078;18.248;2023-07-16T07:03:25;3.13;;;2.20;;
38162;SDS011;23977;53.078;18.248;2023-07-16T07:05:51;3.58;;;2.50;;
38162;SDS011;23977;53.078;18.248;2023-07-16T07:08:16;3.28;;;2.15;;
38162;SDS011;23977;53.078;18.248;2023-07-16T07:10:42;4.70;;;2.22;;
38162;SDS011;23977;53.078;18.248;2023-07-16T07:13:08;5.50;;;2.20;;
38162;SDS011;23977;53.078;18.248;2023-07-16T07:15:33;3.75;;;2.00;;
38162;SDS011;23977;53.078;18.248;2023-07-16T07:17:59;4.88;;;2.20;;
38162;SDS011;23977;53.078;18.248;2023-07-16T07:20:24;3.30;;;2.10;;
38162;SDS011;23977;53.078;18.248;2023-07-16T07:22:50;5.38;;;2.20;;
38162;SDS011;23977;53.078;18.248;2023-07-16T07:25:15;5.13;;;2.35;;
38162;SDS011;23977;53.078;18.248;2023-07-16T07:27:41;5.00;;;2.47;;
38162;SDS011;23977;53.078;18.248;2023-07-16T07:30:07;4.80;;;2.20;;
38162;SDS011;23977;53.078;18.248;2023-07-16T07:32:36;3.85;;;2.13;;
38162;SDS011;23977;53.078;18.248;2023-07-16T07:35:02;6.20;;;2.20;;
38162;SDS011;23977;53.078;18.248;2023-07-16T07:37:28;4.72;;;2.00;;
38162;SDS011;23977;53.078;18.248;2023-07-16T07:39:53;3.63;;;2.08;;
38162;SDS011;23977;53.078;18.248;2023-07-16T07:42:19;4.18;;;2.00;;
38162;SDS011;23977;53.078;18.248;2023-07-16T07:44:45;4.05;;;1.67;;
38162;SDS011;23977;53.078;18.248;2023-07-16T07:47:10;4.65;;;1.60;;
38162;SDS011;23977;53.078;18.248;2023-07-16T07:49:36;3.90;;;1.55;;
38162;SDS011;23977;53.078;18.248;2023-07-16T07:52:02;3.08;;;1.58;;
38162;SDS011;23977;53.078;18.248;2023-07-16T07:54:27;4.63;;;1.60;;
38162;SDS011;23977;53.078;18.248;2023-07-16T07:56:53;2.97;;;1.70;;
38162;SDS011;23977;53.078;18.248;2023-07-16T07:59:18;5.00;;;1.50;;
38162;SDS011;23977;53.078;18.248;2023-07-16T08:01:44;3.88;;;1.60;;
38162;SDS011;23977;53.078;18.248;2023-07-16T08:04:10;2.17;;;1.50;;
38162;SDS011;23977;53.078;18.248;2023-07-16T08:06:36;3.40;;;1.50;;
38162;SDS011;23977;53.078;18.248;2023-07-16T08:09:01;3.58;;;1.60;;
38162;SDS011;23977;53.078;18.248;2023-07-16T08:11:27;2.63;;;1.60;;
38162;SDS011;23977;53.078;18.248;2023-07-16T08:13:52;3.30;;;1.40;;
38162;SDS011;23977;53.078;18.248;2023-07-16T08:16:18;2.65;;;1.52;;
38162;SDS011;23977;53.078;18.248;2023-07-16T08:18:44;3.40;;;1.48;;
38162;SDS011;23977;53.078;18.248;2023-07-16T08:21:09;3.40;;;1.58;;
38162;SDS011;23977;53.078;18.248;2023-07-16T08:23:35;3.08;;;1.30;;
38162;SDS011;23977;53.078;18.248;2023-07-16T08:26:01;1.90;;;1.30;;
38162;SDS011;23977;53.078;18.248;2023-07-16T08:28:26;3.88;;;1.55;;
38162;SDS011;23977;53.078;18.248;2023-07-16T08:30:52;2.65;;;1.70;;
38162;SDS011;23977;53.078;18.248;2023-07-16T08:33:18;4.03;;;1.77;;
38162;SDS011;23977;53.078;18.248;2023-07-16T08:35:43;3.38;;;1.60;;
38162;SDS011;23977;53.078;18.248;2023-07-16T08:38:09;3.33;;;1.70;;
38162;SDS011;23977;53.078;18.248;2023-07-16T08:40:36;2.97;;;1.40;;
38162;SDS011;23977;53.078;18.248;2023-07-16T08:43:03;2.83;;;1.50;;
38162;SDS011;23977;53.078;18.248;2023-07-16T08:45:34;4.25;;;1.73;;
38162;SDS011;23977;53.078;18.248;2023-07-16T08:48:04;3.05;;;1.90;;
38162;SDS011;23977;53.078;18.248;2023-07-16T08:50:31;3.72;;;1.23;;
38162;SDS011;23977;53.078;18.248;2023-07-16T08:53:00;1.92;;;1.30;;
38162;SDS011;23977;53.078;18.248;2023-07-16T08:55:26;2.20;;;1.25;;
38162;SDS011;23977;53.078;18.248;2023-07-16T08:58:53;2.83;;;1.13;;
38162;SDS011;23977;53.078;18.248;2023-07-16T09:01:21;3.75;;;1.30;;
38162;SDS011;23977;53.078;18.248;2023-07-16T09:03:47;3.28;;;1.20;;
38162;SDS011;23977;53.078;18.248;2023-07-16T09:06:13;2.05;;;1.15;;
38162;SDS011;23977;53.078;18.248;2023-07-16T09:08:38;2.92;;;1.20;;
38162;SDS011;23977;53.078;18.248;2023-07-16T09:11:04;1.90;;;1.10;;
38162;SDS011;23977;53.078;18.248;2023-07-16T09:13:30;3.38;;;1.30;;
38162;SDS011;23977;53.078;18.248;2023-07-16T22:35:18;4.95;;;3.80;;
38162;SDS011;23977;53.078;18.248;2023-07-16T22:38:28;5.20;;;3.65;;
38162;SDS011;23977;53.078;18.248;2023-07-16T22:41:37;5.05;;;3.75;;
38162;SDS011;23977;53.078;18.248;2023-07-16T22:44:21;6.03;;;3.80;;
38162;SDS011;23977;53.078;18.248;2023-07-16T22:47:20;5.75;;;3.88;;
38162;SDS011;23977;53.078;18.248;2023-07-16T22:49:57;5.75;;;3.97;;
38162;SDS011;23977;53.078;18.248;2023-07-16T22:52:28;5.85;;;4.20;;
38162;SDS011;23977;53.078;18.248;2023-07-16T22:55:12;5.15;;;3.85;;
38162;SDS011;23977;53.078;18.248;2023-07-16T22:58:01;7.15;;;4.50;;
38162;SDS011;23977;53.078;18.248;2023-07-16T23:00:50;6.40;;;3.90;;
38162;SDS011;23977;53.078;18.248;2023-07-16T23:03:27;5.53;;;4.10;;
38162;SDS011;23977;53.078;18.248;2023-07-16T23:05:56;7.05;;;4.15;;
38162;SDS011;23977;53.078;18.248;2023-07-16T23:08:39;5.63;;;4.13;;
38162;SDS011;23977;53.078;18.248;2023-07-16T23:11:08;6.63;;;4.20;;
38162;SDS011;23977;53.078;18.248;2023-07-16T23:13:38;6.70;;;3.92;;
38162;SDS011;23977;53.078;18.248;2023-07-16T23:16:11;5.95;;;4.40;;
38162;SDS011;23977;53.078;18.248;2023-07-16T23:18:38;6.15;;;4.22;;
38162;SDS011;23977;53.078;18.248;2023-07-16T23:21:27;5.78;;;4.50;;
38162;SDS011;23977;53.078;18.248;2023-07-16T23:24:03;6.55;;;4.38;;
38162;SDS011;23977;53.078;18.248;2023-07-16T23:26:37;5.53;;;4.15;;
38162;SDS011;23977;53.078;18.248;2023-07-16T23:29:05;5.45;;;4.35;;
38162;SDS011;23977;53.078;18.248;2023-07-16T23:31:33;6.30;;;4.63;;
38162;SDS011;23977;53.078;18.248;2023-07-16T23:34:02;5.65;;;4.63;;
38162;SDS011;23977;53.078;18.248;2023-07-16T23:36:36;5.30;;;4.00;;
38162;SDS011;23977;53.078;18.248;2023-07-16T23:39:06;8.23;;;4.93;;
38162;SDS011;23977;53.078;18.248;2023-07-16T23:41:35;6.63;;;4.50;;
38162;SDS011;23977;53.078;18.248;2023-07-16T23:44:05;6.63;;;4.53;;
38162;SDS011;23977;53.078;18.248;2023-07-16T23:46:32;6.68;;;4.65;;
38162;SDS011;23977;53.078;18.248;2023-07-16T23:49:00;6.70;;;4.78;;
38162;SDS011;23977;53.078;18.248;2023-07-16T23:51:32;6.85;;;4.45;;
38162;SDS011;23977;53.078;18.248;2023-07-16T23:54:15;5.35;;;4.35;;
38162;SDS011;23977;53.078;18.248;2023-07-16T23:56:59;6.57;;;4.93;;
38162;SDS011;23977;53.078;18.248;2023-07-16T23:59:45;6.65;;;4.75;;
